sensor_id;sensor_type;location;lat;lon;timestamp;pressure;altitude;pressure_sealevel;temperature;humidity
32324;BME280;25666;44.350;9.222;2023-07-31T00:00:33;101241.38;;;24.91;100.00
32324;BME280;25666;44.350;9.222;2023-07-31T00:02:58;101236.94;;;24.90;100.00
32324;BME280;25666;44.350;9.222;2023-07-31T00:05:23;101231.31;;;24.86;100.00
32324;BME280;25666;44.350;9.222;2023-07-31T00:07:49;101237.31;;;24.92;100.00
32324;BME280;25666;44.350;9.222;2023-07-31T00:10:14;101243.13;;;24.85;100.00
32324;BME280;25666;44.350;9.222;2023-07-31T00:12:42;101236.56;;;24.88;100.00
32324;BME280;25666;44.350;9.222;2023-07-31T00:15:09;101235.13;;;24.76;100.00
32324;BME280;25666;44.350;9.222;2023-07-31T00:17:35;101240.75;;;24.83;100.00
32324;BME280;25666;44.350;9.222;2023-07-31T00:20:01;101240.75;;;24.83;100.00
32324;BME280;25666;44.350;9.222;2023-07-31T00:22:26;101232.19;;;24.83;100.00
32324;BME280;25666;44.350;9.222;2023-07-31T00:24:52;101237.91;;;24.80;100.00
32324;BME280;25666;44.350;9.222;2023-07-31T00:27:17;101235.94;;;24.77;100.00
32324;BME280;25666;44.350;9.222;2023-07-31T00:29:43;101246.22;;;24.71;100.00
32324;BME280;25666;44.350;9.222;2023-07-31T00:32:08;101237.31;;;24.69;100.00
32324;BME280;25666;44.350;9.222;2023-07-31T00:34:36;101239.38;;;24.45;100.00
32324;BME280;25666;44.350;9.222;2023-07-31T00:37:02;101238.69;;;24.14;100.00
32324;BME280;25666;44.350;9.222;2023-07-31T00:39:27;101239.22;;;24.06;100.00
32324;BME280;25666;44.350;9.222;2023-07-31T00:41:53;101238.84;;;24.30;100.00
32324;BME280;25666;44.350;9.222;2023-07-31T00:44:18;101237.53;;;24.35;100.00
32324;BME280;25666;44.350;9.222;2023-07-31T00:46:44;101241.69;;;24.30;100.00
32324;BME280;25666;44.350;9.222;2023-07-31T00:49:10;101238.31;;;24.35;100.00
32324;BME280;25666;44.350;9.222;2023-07-31T00:51:36;101240.81;;;24.33;100.00
32324;BME280;25666;44.350;9.222;2023-07-31T00:54:02;101240.88;;;24.30;100.00
32324;BME280;25666;44.350;9.222;2023-07-31T00:56:28;101242.91;;;24.29;100.00
32324;BME280;25666;44.350;9.222;2023-07-31T00:58:55;101238.88;;;24.27;100.00
32324;BME280;25666;44.350;9.222;2023-07-31T01:01:20;101247.84;;;24.25;100.00
32324;BME280;25666;44.350;9.222;2023-07-31T01:03:47;101241.44;;;24.21;100.00
32324;BME280;25666;44.350;9.222;2023-07-31T01:12:07;101242.47;;;24.31;100.00
32324;BME280;25666;44.350;9.222;2023-07-31T01:14:32;101232.91;;;24.21;100.00
32324;BME280;25666;44.350;9.222;2023-07-31T01:16:58;101237.72;;;24.24;100.00
32324;BME280;25666;44.350;9.222;2023-07-31T01:19:25;101225.59;;;24.20;100.00
32324;BME280;25666;44.350;9.222;2023-07-31T01:27:50;101230.16;;;24.14;100.00
32324;BME280;25666;44.350;9.222;2023-07-31T01:30:22;101234.59;;;24.15;100.00
32324;BME280;25666;44.350;9.222;2023-07-31T01:32:50;101236.38;;;24.06;100.00
32324;BME280;25666;44.350;9.222;2023-07-31T01:35:17;101236.75;;;24.08;100.00
32324;BME280;25666;44.350;9.222;2023-07-31T01:37:42;101231.47;;;24.06;100.00
32324;BME280;25666;44.350;9.222;2023-07-31T01:40:09;101238.56;;;23.68;100.00
32324;BME280;25666;44.350;9.222;2023-07-31T01:42:34;101241.97;;;23.56;100.00
32324;BME280;25666;44.350;9.222;2023-07-31T01:45:00;101246.06;;;23.55;100.00
32324;BME280;25666;44.350;9.222;2023-07-31T01:47:25;101244.91;;;23.79;100.00
32324;BME280;25666;44.350;9.222;2023-07-31T01:49:51;101240.03;;;23.79;100.00
32324;BME280;25666;44.350;9.222;2023-07-31T01:52:16;101242.81;;;23.83;100.00
32324;BME280;25666;44.350;9.222;2023-07-31T01:54:42;101243.69;;;23.80;100.00
32324;BME280;25666;44.350;9.222;2023-07-31T01:57:07;101246.50;;;23.80;100.00
32324;BME280;25666;44.350;9.222;2023-07-31T01:59:33;101242.06;;;23.79;100.00
32324;BME280;25666;44.350;9.222;2023-07-31T02:01:59;101233.97;;;23.77;100.00
32324;BME280;25666;44.350;9.222;2023-07-31T02:04:24;101240.84;;;23.80;100.00
32324;BME280;25666;44.350;9.222;2023-07-31T02:06:50;101224.19;;;23.78;100.00
32324;BME280;25666;44.350;9.222;2023-07-31T02:09:15;101227.84;;;23.79;100.00
32324;BME280;25666;44.350;9.222;2023-07-31T02:11:41;101218.44;;;23.82;100.00
32324;BME280;25666;44.350;9.222;2023-07-31T02:14:06;101220.53;;;23.78;100.00
32324;BME280;25666;44.350;9.222;2023-07-31T02:16:32;101215.41;;;23.69;100.00
32324;BME280;25666;44.350;9.222;2023-07-31T02:19:00;101210.16;;;23.68;100.00
32324;BME280;25666;44.350;9.222;2023-07-31T02:21:25;101214.53;;;23.72;100.00
32324;BME280;25666;44.350;9.222;2023-07-31T02:23:51;101213.31;;;23.73;100.00
32324;BME280;25666;44.350;9.222;2023-07-31T02:26:17;101211.34;;;23.70;100.00
32324;BME280;25666;44.350;9.222;2023-07-31T02:28:43;101204.78;;;23.73;100.00
32324;BME280;25666;44.350;9.222;2023-07-31T02:31:10;101203.22;;;23.69;100.00
32324;BME280;25666;44.350;9.222;2023-07-31T02:33:35;101199.19;;;23.66;100.00
32324;BME280;25666;44.350;9.222;2023-07-31T02:36:01;101207.03;;;23.59;100.00
32324;BME280;25666;44.350;9.222;2023-07-31T02:38:26;101203.44;;;23.55;100.00
32324;BME280;25666;44.350;9.222;2023-07-31T02:40:52;101214.75;;;23.58;100.00
32324;BME280;25666;44.350;9.222;2023-07-31T02:43:17;101213.94;;;23.58;100.00
32324;BME280;25666;44.350;9.222;2023-07-31T02:45:43;101208.31;;;23.54;100.00
32324;BME280;25666;44.350;9.222;2023-07-31T02:48:10;101207.94;;;23.52;100.00
32324;BME280;25666;44.350;9.222;2023-07-31T02:50:36;101206.75;;;23.50;100.00
32324;BME280;25666;44.350;9.222;2023-07-31T02:53:02;101191.69;;;23.53;100.00
32324;BME280;25666;44.350;9.222;2023-07-31T02:55:28;101195.66;;;23.28;100.00
32324;BME280;25666;44.350;9.222;2023-07-31T02:57:53;101192.44;;;23.26;100.00
32324;BME280;25666;44.350;9.222;2023-07-31T03:00:20;101203.72;;;23.33;100.00
32324;BME280;25666;44.350;9.222;2023-07-31T03:02:45;101196.38;;;23.36;100.00
32324;BME280;25666;44.350;9.222;2023-07-31T03:05:11;101200.66;;;23.21;100.00
32324;BME280;25666;44.350;9.222;2023-07-31T03:07:36;101199.19;;;23.06;100.00
32324;BME280;25666;44.350;9.222;2023-07-31T03:10:02;101197.88;;;23.14;100.00
32324;BME280;25666;44.350;9.222;2023-07-31T03:12:27;101199.31;;;23.29;100.00
32324;BME280;25666;44.350;9.222;2023-07-31T03:14:53;101200.47;;;23.31;100.00
32324;BME280;25666;44.350;9.222;2023-07-31T03:17:19;101200.81;;;23.37;100.00
32324;BME280;25666;44.350;9.222;2023-07-31T03:19:44;101197.72;;;23.24;100.00
32324;BME280;25666;44.350;9.222;2023-07-31T03:22:10;101194.25;;;23.13;100.00
32324;BME280;25666;44.350;9.222;2023-07-31T03:24:35;101193.59;;;23.02;100.00
32324;BME280;25666;44.350;9.222;2023-07-31T03:27:01;101197.34;;;22.92;100.00
32324;BME280;25666;44.350;9.222;2023-07-31T03:29:26;101195.97;;;23.04;100.00
32324;BME280;25666;44.350;9.222;2023-07-31T03:31:52;101202.84;;;23.06;100.00
32324;BME280;25666;44.350;9.222;2023-07-31T03:34:17;101199.50;;;23.15;100.00
32324;BME280;25666;44.350;9.222;2023-07-31T03:36:43;101201.06;;;23.19;100.00
32324;BME280;25666;44.350;9.222;2023-07-31T03:39:09;101196.13;;;23.23;100.00
32324;BME280;25666;44.350;9.222;2023-07-31T03:41:35;101200.66;;;23.21;100.00
32324;BME280;25666;44.350;9.222;2023-07-31T03:44:00;101203.84;;;23.23;100.00
32324;BME280;25666;44.350;9.222;2023-07-31T03:46:26;101208.44;;;23.13;100.00
32324;BME280;25666;44.350;9.222;2023-07-31T03:48:52;101202.38;;;23.11;100.00
32324;BME280;25666;44.350;9.222;2023-07-31T03:51:17;101210.00;;;23.18;100.00
32324;BME280;25666;44.350;9.222;2023-07-31T03:53:43;101211.28;;;23.13;100.00
32324;BME280;25666;44.350;9.222;2023-07-31T03:56:09;101215.34;;;23.12;100.00
32324;BME280;25666;44.350;9.222;2023-07-31T03:58:35;101217.03;;;23.06;100.00
32324;BME280;25666;44.350;9.222;2023-07-31T04:01:02;101214.69;;;23.01;100.00
32324;BME280;25666;44.350;9.222;2023-07-31T04:03:28;101204.88;;;23.06;100.00
32324;BME280;25666;44.350;9.222;2023-07-31T04:05:54;101204.47;;;23.07;100.00
32324;BME280;25666;44.350;9.222;2023-07-31T04:08:21;101213.38;;;23.06;100.00
32324;BME280;25666;44.350;9.222;2023-07-31T04:10:47;101210.41;;;22.86;100.00
32324;BME280;25666;44.350;9.222;2023-07-31T04:13:13;101214.16;;;22.76;100.00
32324;BME280;25666;44.350;9.222;2023-07-31T04:15:38;101207.09;;;22.91;100.00
32324;BME280;25666;44.350;9.222;2023-07-31T04:18:04;101201.16;;;22.78;100.00
32324;BME280;25666;44.350;9.222;2023-07-31T04:20:30;101213.97;;;22.90;100.00
32324;BME280;25666;44.350;9.222;2023-07-31T04:22:56;101211.28;;;22.79;100.00
32324;BME280;25666;44.350;9.222;2023-07-31T04:25:21;101219.91;;;22.69;100.00
32324;BME280;25666;44.350;9.222;2023-07-31T04:27:47;101227.75;;;22.51;100.00
32324;BME280;25666;44.350;9.222;2023-07-31T04:30:12;101233.16;;;22.38;100.00
32324;BME280;25666;44.350;9.222;2023-07-31T04:32:38;101231.47;;;22.44;100.00
32324;BME280;25666;44.350;9.222;2023-07-31T04:35:04;101233.06;;;22.49;100.00
32324;BME280;25666;44.350;9.222;2023-07-31T04:37:29;101231.41;;;22.51;100.00
32324;BME280;25666;44.350;9.222;2023-07-31T04:39:55;101232.91;;;22.66;100.00
32324;BME280;25666;44.350;9.222;2023-07-31T04:42:20;101231.19;;;22.76;100.00
32324;BME280;25666;44.350;9.222;2023-07-31T04:44:46;101236.63;;;22.56;100.00
32324;BME280;25666;44.350;9.222;2023-07-31T04:47:11;101242.59;;;22.69;100.00
32324;BME280;25666;44.350;9.222;2023-07-31T04:49:37;101240.00;;;22.85;100.00
32324;BME280;25666;44.350;9.222;2023-07-31T04:52:03;101241.22;;;22.84;100.00
32324;BME280;25666;44.350;9.222;2023-07-31T04:54:28;101236.78;;;22.83;100.00
32324;BME280;25666;44.350;9.222;2023-07-31T04:56:54;101243.94;;;22.94;100.00
32324;BME280;25666;44.350;9.222;2023-07-31T04:59:20;101244.31;;;22.97;100.00
32324;BME280;25666;44.350;9.222;2023-07-31T05:01:45;101256.97;;;22.92;100.00
32324;BME280;25666;44.350;9.222;2023-07-31T05:04:14;101261.00;;;22.94;100.00
32324;BME280;25666;44.350;9.222;2023-07-31T05:06:41;101256.97;;;22.92;100.00
32324;BME280;25666;44.350;9.222;2023-07-31T05:09:07;101265.56;;;23.19;100.00
32324;BME280;25666;44.350;9.222;2023-07-31T05:11:34;101267.44;;;23.32;100.00
32324;BME280;25666;44.350;9.222;2023-07-31T05:14:00;101266.91;;;23.44;100.00
32324;BME280;25666;44.350;9.222;2023-07-31T05:16:26;101269.22;;;23.53;100.00
32324;BME280;25666;44.350;9.222;2023-07-31T05:18:51;101269.84;;;23.68;100.00
32324;BME280;25666;44.350;9.222;2023-07-31T05:21:17;101271.47;;;23.65;100.00
32324;BME280;25666;44.350;9.222;2023-07-31T05:23:42;101269.84;;;23.68;100.00
32324;BME280;25666;44.350;9.222;2023-07-31T05:26:08;101270.94;;;23.77;100.00
32324;BME280;25666;44.350;9.222;2023-07-31T05:28:35;101274.34;;;23.92;100.00
32324;BME280;25666;44.350;9.222;2023-07-31T05:31:02;101267.25;;;24.04;100.00
32324;BME280;25666;44.350;9.222;2023-07-31T05:33:28;101269.59;;;24.12;100.00
32324;BME280;25666;44.350;9.222;2023-07-31T05:35:53;101267.41;;;24.23;100.00
32324;BME280;25666;44.350;9.222;2023-07-31T05:38:19;101268.25;;;24.20;100.00
32324;BME280;25666;44.350;9.222;2023-07-31T05:40:44;101272.53;;;24.32;100.00
32324;BME280;25666;44.350;9.222;2023-07-31T05:43:10;101268.59;;;24.49;100.00
32324;BME280;25666;44.350;9.222;2023-07-31T05:45:35;101269.72;;;24.75;100.00
32324;BME280;25666;44.350;9.222;2023-07-31T05:48:02;101272.28;;;24.92;100.00
32324;BME280;25666;44.350;9.222;2023-07-31T05:50:28;101267.00;;;24.91;100.00
32324;BME280;25666;44.350;9.222;2023-07-31T05:52:53;101260.63;;;25.46;100.00
32324;BME280;25666;44.350;9.222;2023-07-31T05:55:19;101251.38;;;25.94;100.00
32324;BME280;25666;44.350;9.222;2023-07-31T05:57:44;101252.16;;;26.30;100.00
32324;BME280;25666;44.350;9.222;2023-07-31T06:00:13;101246.19;;;27.02;100.00
32324;BME280;25666;44.350;9.222;2023-07-31T06:02:39;101247.56;;;28.05;100.00
32324;BME280;25666;44.350;9.222;2023-07-31T06:05:05;101247.13;;;29.22;100.00
32324;BME280;25666;44.350;9.222;2023-07-31T06:07:33;101245.47;;;29.87;100.00
32324;BME280;25666;44.350;9.222;2023-07-31T06:09:58;101240.00;;;31.05;100.00
32324;BME280;25666;44.350;9.222;2023-07-31T06:12:31;101238.75;;;32.50;100.00
32324;BME280;25666;44.350;9.222;2023-07-31T06:14:57;101243.13;;;33.07;100.00
32324;BME280;25666;44.350;9.222;2023-07-31T06:17:22;101244.94;;;33.05;100.00
32324;BME280;25666;44.350;9.222;2023-07-31T06:19:49;101240.78;;;32.82;100.00
32324;BME280;25666;44.350;9.222;2023-07-31T06:22:14;101248.78;;;32.30;100.00
32324;BME280;25666;44.350;9.222;2023-07-31T06:24:40;101250.44;;;32.94;100.00
32324;BME280;25666;44.350;9.222;2023-07-31T06:27:06;101248.41;;;33.76;100.00
32324;BME280;25666;44.350;9.222;2023-07-31T06:29:31;101242.75;;;34.72;100.00
32324;BME280;25666;44.350;9.222;2023-07-31T06:31:57;101254.97;;;35.02;100.00
32324;BME280;25666;44.350;9.222;2023-07-31T06:34:23;101258.63;;;34.41;100.00
32324;BME280;25666;44.350;9.222;2023-07-31T06:36:48;101271.56;;;34.46;100.00
32324;BME280;25666;44.350;9.222;2023-07-31T06:39:13;101262.97;;;34.86;100.00
32324;BME280;25666;44.350;9.222;2023-07-31T06:41:39;101262.78;;;35.93;100.00
32324;BME280;25666;44.350;9.222;2023-07-31T06:44:08;101269.03;;;36.12;100.00
32324;BME280;25666;44.350;9.222;2023-07-31T06:46:34;101267.38;;;36.47;100.00
32324;BME280;25666;44.350;9.222;2023-07-31T06:48:59;101259.94;;;35.67;100.00
32324;BME280;25666;44.350;9.222;2023-07-31T06:51:25;101263.25;;;36.54;100.00
32324;BME280;25666;44.350;9.222;2023-07-31T06:53:51;101275.66;;;36.60;100.00
32324;BME280;25666;44.350;9.222;2023-07-31T06:56:16;101271.59;;;37.87;94.15
32324;BME280;25666;44.350;9.222;2023-07-31T06:58:42;101266.25;;;38.41;85.47
32324;BME280;25666;44.350;9.222;2023-07-31T07:01:07;101270.19;;;38.60;82.63
32324;BME280;25666;44.350;9.222;2023-07-31T07:03:33;101272.59;;;37.50;86.39
32324;BME280;25666;44.350;9.222;2023-07-31T07:05:58;101268.91;;;37.50;91.90
32324;BME280;25666;44.350;9.222;2023-07-31T07:08:24;101271.75;;;37.39;93.35
32324;BME280;25666;44.350;9.222;2023-07-31T07:10:50;101268.22;;;38.96;79.52
32324;BME280;25666;44.350;9.222;2023-07-31T07:13:15;101266.81;;;38.34;81.99
32324;BME280;25666;44.350;9.222;2023-07-31T07:15:41;101270.00;;;39.92;67.74
32324;BME280;25666;44.350;9.222;2023-07-31T07:18:07;101266.84;;;39.90;65.11
32324;BME280;25666;44.350;9.222;2023-07-31T07:20:32;101260.13;;;40.79;55.59
32324;BME280;25666;44.350;9.222;2023-07-31T07:22:58;101260.22;;;38.00;67.74
32324;BME280;25666;44.350;9.222;2023-07-31T07:25:23;101252.53;;;38.47;73.01
32324;BME280;25666;44.350;9.222;2023-07-31T07:27:49;101244.84;;;39.13;65.20
32324;BME280;25666;44.350;9.222;2023-07-31T07:30:14;101259.44;;;39.53;62.76
32324;BME280;25666;44.350;9.222;2023-07-31T07:32:40;101250.63;;;39.18;58.10
32324;BME280;25666;44.350;9.222;2023-07-31T07:35:06;101257.94;;;40.60;53.33
32324;BME280;25666;44.350;9.222;2023-07-31T07:37:32;101264.78;;;40.87;51.77
32324;BME280;25666;44.350;9.222;2023-07-31T07:39:57;101261.03;;;40.44;53.36
32324;BME280;25666;44.350;9.222;2023-07-31T07:42:23;101262.69;;;38.92;55.28
32324;BME280;25666;44.350;9.222;2023-07-31T07:44:48;101262.06;;;36.04;78.07
32324;BME280;25666;44.350;9.222;2023-07-31T07:47:14;101260.53;;;36.45;75.53
32324;BME280;25666;44.350;9.222;2023-07-31T07:49:39;101272.75;;;36.60;72.76
32324;BME280;25666;44.350;9.222;2023-07-31T07:52:05;101266.97;;;36.23;80.50
32324;BME280;25666;44.350;9.222;2023-07-31T07:54:31;101257.88;;;35.73;86.25
32324;BME280;25666;44.350;9.222;2023-07-31T07:56:56;101268.03;;;35.37;90.51
32324;BME280;25666;44.350;9.222;2023-07-31T07:59:22;101266.91;;;34.69;94.91
32324;BME280;25666;44.350;9.222;2023-07-31T08:01:47;101274.72;;;36.80;81.04
32324;BME280;25666;44.350;9.222;2023-07-31T08:04:13;101270.38;;;35.59;87.98
32324;BME280;25666;44.350;9.222;2023-07-31T08:06:38;101267.97;;;34.16;100.00
32324;BME280;25666;44.350;9.222;2023-07-31T08:09:05;101261.63;;;33.39;100.00
32324;BME280;25666;44.350;9.222;2023-07-31T08:11:35;101252.84;;;34.41;100.00
32324;BME280;25666;44.350;9.222;2023-07-31T08:14:00;101262.13;;;35.06;94.75
32324;BME280;25666;44.350;9.222;2023-07-31T08:16:26;101263.81;;;35.13;99.13
32324;BME280;25666;44.350;9.222;2023-07-31T08:18:51;101264.72;;;32.73;100.00
32324;BME280;25666;44.350;9.222;2023-07-31T08:21:17;101261.03;;;31.65;100.00
32324;BME280;25666;44.350;9.222;2023-07-31T08:23:43;101262.81;;;30.72;100.00
32324;BME280;25666;44.350;9.222;2023-07-31T08:26:14;101258.69;;;30.24;100.00
32324;BME280;25666;44.350;9.222;2023-07-31T08:28:40;101259.41;;;29.97;100.00
32324;BME280;25666;44.350;9.222;2023-07-31T08:31:05;101254.88;;;29.87;100.00
32324;BME280;25666;44.350;9.222;2023-07-31T08:33:31;101260.66;;;29.65;100.00
32324;BME280;25666;44.350;9.222;2023-07-31T08:35:57;101261.06;;;29.33;100.00
32324;BME280;25666;44.350;9.222;2023-07-31T08:38:22;101259.22;;;28.83;100.00
32324;BME280;25666;44.350;9.222;2023-07-31T08:40:50;101258.72;;;28.97;100.00
32324;BME280;25666;44.350;9.222;2023-07-31T08:43:16;101256.91;;;28.91;100.00
32324;BME280;25666;44.350;9.222;2023-07-31T08:45:42;101259.06;;;28.52;100.00
32324;BME280;25666;44.350;9.222;2023-07-31T08:48:08;101253.88;;;28.60;100.00
32324;BME280;25666;44.350;9.222;2023-07-31T08:50:33;101264.78;;;28.52;100.00
32324;BME280;25666;44.350;9.222;2023-07-31T08:52:59;101257.44;;;28.51;100.00
32324;BME280;25666;44.350;9.222;2023-07-31T08:55:26;101253.47;;;28.24;100.00
32324;BME280;25666;44.350;9.222;2023-07-31T08:57:52;101242.94;;;28.33;100.00
32324;BME280;25666;44.350;9.222;2023-07-31T09:00:21;101247.88;;;28.20;100.00
32324;BME280;25666;44.350;9.222;2023-07-31T09:02:57;101242.16;;;28.20;100.00
32324;BME280;25666;44.350;9.222;2023-07-31T09:05:26;101241.81;;;28.05;100.00
32324;BME280;25666;44.350;9.222;2023-07-31T09:07:52;101240.31;;;28.01;100.00
32324;BME280;25666;44.350;9.222;2023-07-31T09:10:18;101237.13;;;28.24;100.00
32324;BME280;25666;44.350;9.222;2023-07-31T09:12:44;101236.53;;;28.04;100.00
32324;BME280;25666;44.350;9.222;2023-07-31T09:15:11;101235.06;;;28.25;100.00
32324;BME280;25666;44.350;9.222;2023-07-31T09:17:37;101228.97;;;28.23;100.00
32324;BME280;25666;44.350;9.222;2023-07-31T09:20:21;101237.69;;;28.19;100.00
32324;BME280;25666;44.350;9.222;2023-07-31T09:22:48;101237.69;;;28.19;100.00
32324;BME280;25666;44.350;9.222;2023-07-31T09:25:18;101241.00;;;28.17;100.00
32324;BME280;25666;44.350;9.222;2023-07-31T09:27:57;101246.63;;;28.08;100.00
32324;BME280;25666;44.350;9.222;2023-07-31T09:30:23;101237.34;;;28.17;100.00
32324;BME280;25666;44.350;9.222;2023-07-31T09:32:50;101246.53;;;28.12;100.00
32324;BME280;25666;44.350;9.222;2023-07-31T09:35:27;101254.88;;;28.19;100.00
32324;BME280;25666;44.350;9.222;2023-07-31T09:37:55;101244.34;;;28.29;100.00
32324;BME280;25666;44.350;9.222;2023-07-31T09:40:36;101254.97;;;28.28;100.00
32324;BME280;25666;44.350;9.222;2023-07-31T09:43:04;101247.31;;;28.25;100.00
32324;BME280;25666;44.350;9.222;2023-07-31T09:45:34;101249.59;;;28.17;100.00
32324;BME280;25666;44.350;9.222;2023-07-31T09:48:00;101239.06;;;28.27;100.00
32324;BME280;25666;44.350;9.222;2023-07-31T09:50:25;101234.72;;;28.10;100.00
32324;BME280;25666;44.350;9.222;2023-07-31T09:52:51;101247.44;;;28.22;100.00
32324;BME280;25666;44.350;9.222;2023-07-31T09:55:18;101249.47;;;27.96;100.00
32324;BME280;25666;44.350;9.222;2023-07-31T09:57:46;101257.34;;;28.04;100.00
32324;BME280;25666;44.350;9.222;2023-07-31T10:00:13;101258.53;;;28.07;100.00
32324;BME280;25666;44.350;9.222;2023-07-31T10:02:41;101260.69;;;28.03;100.00
32324;BME280;25666;44.350;9.222;2023-07-31T10:05:07;101264.00;;;28.01;100.00
32324;BME280;25666;44.350;9.222;2023-07-31T10:07:37;101268.69;;;27.95;100.00
32324;BME280;25666;44.350;9.222;2023-07-31T10:10:07;101252.66;;;27.98;100.00
32324;BME280;25666;44.350;9.222;2023-07-31T10:12:33;101268.72;;;28.08;100.00
32324;BME280;25666;44.350;9.222;2023-07-31T10:15:00;101278.41;;;27.98;100.00
32324;BME280;25666;44.350;9.222;2023-07-31T10:17:26;101274.31;;;27.86;100.00
32324;BME280;25666;44.350;9.222;2023-07-31T10:19:52;101268.69;;;27.83;100.00
32324;BME280;25666;44.350;9.222;2023-07-31T10:22:19;101268.69;;;27.95;100.00
32324;BME280;25666;44.350;9.222;2023-07-31T10:24:46;101268.81;;;27.92;100.00
32324;BME280;25666;44.350;9.222;2023-07-31T10:27:12;101270.84;;;27.91;100.00
32324;BME280;25666;44.350;9.222;2023-07-31T10:29:38;101266.53;;;27.99;100.00
32324;BME280;25666;44.350;9.222;2023-07-31T10:32:06;101257.84;;;27.90;100.00
32324;BME280;25666;44.350;9.222;2023-07-31T10:34:35;101263.66;;;27.87;100.00
32324;BME280;25666;44.350;9.222;2023-07-31T10:40:03;101263.56;;;27.90;100.00
32324;BME280;25666;44.350;9.222;2023-07-31T10:42:34;101266.41;;;27.90;100.00
32324;BME280;25666;44.350;9.222;2023-07-31T10:45:08;101257.03;;;27.90;100.00
32324;BME280;25666;44.350;9.222;2023-07-31T10:47:45;101254.75;;;27.97;100.00
32324;BME280;25666;44.350;9.222;2023-07-31T10:52:36;101254.16;;;27.64;100.00
32324;BME280;25666;44.350;9.222;2023-07-31T10:55:41;101245.56;;;27.77;100.00
32324;BME280;25666;44.350;9.222;2023-07-31T10:58:12;101246.50;;;27.74;100.00
32324;BME280;25666;44.350;9.222;2023-07-31T11:00:39;101238.72;;;27.75;100.00
32324;BME280;25666;44.350;9.222;2023-07-31T11:03:10;101244.88;;;27.73;100.00
32324;BME280;25666;44.350;9.222;2023-07-31T11:06:00;101249.91;;;27.82;100.00
32324;BME280;25666;44.350;9.222;2023-07-31T11:08:33;101256.53;;;27.79;100.00
32324;BME280;25666;44.350;9.222;2023-07-31T11:13:43;101262.94;;;27.70;100.00
32324;BME280;25666;44.350;9.222;2023-07-31T11:16:10;101263.31;;;27.85;100.00
32324;BME280;25666;44.350;9.222;2023-07-31T11:18:41;101249.13;;;27.69;100.00
32324;BME280;25666;44.350;9.222;2023-07-31T11:21:14;101264.00;;;27.35;100.00
32324;BME280;25666;44.350;9.222;2023-07-31T11:23:40;101258.13;;;27.54;100.00
32324;BME280;25666;44.350;9.222;2023-07-31T11:26:06;101254.34;;;27.57;100.00
32324;BME280;25666;44.350;9.222;2023-07-31T11:28:33;101246.47;;;27.61;100.00
32324;BME280;25666;44.350;9.222;2023-07-31T11:31:00;101249.16;;;27.40;100.00
32324;BME280;25666;44.350;9.222;2023-07-31T11:33:25;101249.09;;;27.56;100.00
32324;BME280;25666;44.350;9.222;2023-07-31T11:35:51;101251.38;;;27.48;100.00
32324;BME280;25666;44.350;9.222;2023-07-31T11:38:30;101248.63;;;27.57;100.00
32324;BME280;25666;44.350;9.222;2023-07-31T11:40:58;101246.81;;;27.63;100.00
32324;BME280;25666;44.350;9.222;2023-07-31T11:43:24;101240.28;;;27.63;100.00
32324;BME280;25666;44.350;9.222;2023-07-31T11:45:54;101237.78;;;27.65;100.00
32324;BME280;25666;44.350;9.222;2023-07-31T11:48:25;101239.25;;;27.70;100.00
32324;BME280;25666;44.350;9.222;2023-07-31T11:51:02;101238.22;;;27.63;100.00
32324;BME280;25666;44.350;9.222;2023-07-31T11:53:33;101237.91;;;27.61;100.00
32324;BME280;25666;44.350;9.222;2023-07-31T11:56:01;101231.50;;;27.70;100.00
32324;BME280;25666;44.350;9.222;2023-07-31T11:58:31;101223.28;;;27.85;100.00
32324;BME280;25666;44.350;9.222;2023-07-31T12:00:57;101237.22;;;27.83;100.00
32324;BME280;25666;44.350;9.222;2023-07-31T12:03:23;101227.59;;;27.51;100.00
32324;BME280;25666;44.350;9.222;2023-07-31T12:05:49;101223.34;;;27.43;100.00
32324;BME280;25666;44.350;9.222;2023-07-31T12:08:14;101220.25;;;27.50;100.00
32324;BME280;25666;44.350;9.222;2023-07-31T12:10:41;101221.63;;;27.46;100.00
32324;BME280;25666;44.350;9.222;2023-07-31T12:13:11;101224.50;;;27.46;100.00
32324;BME280;25666;44.350;9.222;2023-07-31T12:15:43;101216.38;;;27.57;100.00
32324;BME280;25666;44.350;9.222;2023-07-31T12:18:10;101214.22;;;27.61;100.00
32324;BME280;25666;44.350;9.222;2023-07-31T12:20:45;101212.59;;;27.73;100.00
32324;BME280;25666;44.350;9.222;2023-07-31T12:23:19;101201.31;;;27.69;100.00
32324;BME280;25666;44.350;9.222;2023-07-31T12:26:00;101203.47;;;27.65;100.00
32324;BME280;25666;44.350;9.222;2023-07-31T12:28:25;101207.56;;;27.64;100.00
32324;BME280;25666;44.350;9.222;2023-07-31T12:30:51;101210.91;;;27.75;100.00
32324;BME280;25666;44.350;9.222;2023-07-31T12:33:18;101216.06;;;27.80;100.00
32324;BME280;25666;44.350;9.222;2023-07-31T12:35:46;101215.34;;;27.89;100.00
32324;BME280;25666;44.350;9.222;2023-07-31T12:38:13;101210.66;;;27.82;100.00
32324;BME280;25666;44.350;9.222;2023-07-31T12:40:40;101206.66;;;27.80;100.00
32324;BME280;25666;44.350;9.222;2023-07-31T12:43:07;101211.69;;;27.76;100.00
32324;BME280;25666;44.350;9.222;2023-07-31T12:45:33;101209.19;;;27.78;100.00
32324;BME280;25666;44.350;9.222;2023-07-31T12:47:59;101204.13;;;27.82;100.00
32324;BME280;25666;44.350;9.222;2023-07-31T12:50:26;101202.66;;;27.77;100.00
32324;BME280;25666;44.350;9.222;2023-07-31T12:52:53;101200.59;;;27.78;100.00
32324;BME280;25666;44.350;9.222;2023-07-31T12:55:19;101193.28;;;27.77;100.00
32324;BME280;25666;44.350;9.222;2023-07-31T12:57:44;101194.41;;;27.79;100.00